Time;durP1;ratioP1;P1;durP2;ratioP2;P2;SDS_P1;SDS_P2;PMS_P1;PMS_P2;Temp;Humidity;BMP_temperature;BMP_pressure;BME280_temperature;BME280_humidity;BME280_pressure;Samples;Min_cycle;Max_cycle;Signal;HPM_P1;HPM_P2
2022/10/17 03:02:54;;;;;;;;;;;16.10;99.90;;;;;;5114764;23;20286;-69
2022/10/17 03:05:22;;;;;;;;;;;16.20;99.90;;;;;;5026925;28;20020;-68
2022/10/17 03:07:49;;;;;;;;;;;16.20;99.90;;;;;;5026531;28;19932;-68
2022/10/17 03:10:16;;;;;;;;;;;16.20;99.90;;;;;;5032752;28;19932;-69
2022/10/17 03:12:42;;;;;;;;;;;16.20;99.90;;;;;;5015348;28;19930;-68
2022/10/17 03:15:10;;;;;;;;;;;16.20;99.90;;;;;;5013622;28;19925;-69
2022/10/17 03:17:37;;;;;;;;;;;16.30;99.90;;;;;;5013123;28;20387;-68
2022/10/17 03:20:06;;;;;;;;;;;16.30;99.90;;;;;;5010547;28;19929;-69
2022/10/17 03:22:34;;;;;;;;;;;16.40;99.90;;;;;;5012769;28;19937;-68
2022/10/17 03:25:02;;;;;;;;;;;16.40;99.90;;;;;;5010586;28;19931;-69
2022/10/17 03:27:29;;;;;;;;;;;16.40;99.90;;;;;;5013275;28;19926;-68
2022/10/17 03:29:56;;;;;;;;;;;16.40;99.90;;;;;;5012835;28;19925;-68
2022/10/17 03:32:23;;;;;;;;;;;16.40;99.90;;;;;;5012741;28;19932;-69
2022/10/17 03:34:49;;;;;;;;;;;16.40;99.90;;;;;;5008868;28;19925;-69
2022/10/17 03:37:19;;;;;;;;;;;16.50;99.90;;;;;;5013132;28;20029;-68
2022/10/17 03:39:46;;;;;;;;;;;16.50;99.90;;;;;;5012579;28;19925;-68
2022/10/17 03:42:12;;;;;;;;;;;16.50;99.90;;;;;;5007249;28;20384;-69
2022/10/17 03:44:39;;;;;;;;;;;16.50;99.90;;;;;;5012858;28;19925;-68
2022/10/17 03:47:06;;;;;;;;;;;16.40;99.90;;;;;;5012899;28;19925;-69
2022/10/17 03:49:33;;;;;;;;;;;16.40;99.90;;;;;;5010811;28;20384;-68
2022/10/17 03:52:00;;;;;;;;;;;16.40;99.90;;;;;;5005734;28;19949;-69
2022/10/17 03:54:29;;;;;;;;;;;16.40;99.90;;;;;;5012365;28;20016;-69
2022/10/17 03:56:56;;;;;;;;;;;16.40;99.90;;;;;;5009578;28;19965;-69
2022/10/17 03:59:23;;;;;;;;;;;16.40;99.90;;;;;;5011923;28;20407;-68
2022/10/17 04:01:59;;;;;;;;;;;16.40;99.90;;;;;;5012194;28;19956;-69
2022/10/17 04:04:26;;;;;;;;;;;16.40;99.90;;;;;;5008238;28;19932;-69
2022/10/17 04:06:52;;;;;;;;;;;16.50;99.90;;;;;;5012203;28;19925;-68
2022/10/17 04:09:19;;;;;;;;;;;16.50;99.90;;;;;;5008731;28;19961;-68
2022/10/17 04:12:02;;;;;;;;;;;16.50;99.90;;;;;;5009993;28;20048;-68
2022/10/17 04:14:31;;;;;;;;;;;16.50;99.90;;;;;;5012331;28;19925;-68
2022/10/17 04:16:58;;;;;;;;;;;16.50;99.90;;;;;;5007251;28;20311;-69
2022/10/17 04:19:26;;;;;;;;;;;16.50;99.90;;;;;;5011310;28;19925;-68
2022/10/17 04:21:54;;;;;;;;;;;16.60;99.90;;;;;;5011130;28;19929;-69
2022/10/17 04:24:21;;;;;;;;;;;16.60;99.90;;;;;;5012176;28;19987;-69
2022/10/17 04:27:02;;;;;;;;;;;16.60;99.90;;;;;;5004321;28;20455;-67
2022/10/17 04:29:32;;;;;;;;;;;16.60;99.90;;;;;;5011546;28;19936;-68
2022/10/17 04:32:06;;;;;;;;;;;16.70;99.90;;;;;;5011784;28;19930;-68
2022/10/17 04:34:39;;;;;;;;;;;16.80;99.90;;;;;;5011817;28;20335;-68
2022/10/17 04:37:06;;;;;;;;;;;17.00;99.90;;;;;;5012139;28;19932;-69
2022/10/17 04:39:34;;;;;;;;;;;17.00;99.90;;;;;;5005671;28;19973;-69
2022/10/17 04:42:01;;;;;;;;;;;17.00;99.90;;;;;;5008016;28;19933;-68
2022/10/17 04:44:30;;;;;;;;;;;17.00;99.90;;;;;;5011876;28;19925;-69
2022/10/17 04:46:58;;;;;;;;;;;17.10;99.90;;;;;;5010238;28;19925;-68
2022/10/17 04:49:25;;;;;;;;;;;17.10;99.90;;;;;;5008717;28;20426;-69
2022/10/17 04:51:55;;;;;;;;;;;17.20;99.90;;;;;;5005924;28;20395;-68
2022/10/17 04:54:40;;;;;;;;;;;17.20;99.90;;;;;;5011514;28;19925;-68
2022/10/17 04:57:09;;;;;;;;;;;17.20;99.90;;;;;;5011464;28;19931;-67
2022/10/17 04:59:38;;;;;;;;;;;17.30;99.90;;;;;;5011153;28;19976;-69
2022/10/17 05:02:20;;;;;;;;;;;17.30;99.90;;;;;;4999966;28;19925;-68
2022/10/17 05:04:47;;;;;;;;;;;17.30;99.90;;;;;;5010545;28;20060;-70
2022/10/17 05:07:15;;;;;;;;;;;17.30;99.90;;;;;;5009877;28;19929;-69
2022/10/17 05:09:51;;;;;;;;;;;17.40;99.90;;;;;;5010622;28;20448;-69
2022/10/17 05:12:19;;;;;;;;;;;17.40;99.90;;;;;;5003961;28;20335;-69
2022/10/17 05:14:49;;;;;;;;;;;17.40;99.90;;;;;;5006067;28;19949;-68
2022/10/17 05:17:16;;;;;;;;;;;17.40;99.90;;;;;;5010104;28;19929;-69
2022/10/17 05:19:42;;;;;;;;;;;17.40;99.90;;;;;;5007169;28;19969;-69
2022/10/17 05:22:09;;;;;;;;;;;17.40;99.90;;;;;;5009851;28;19926;-69
2022/10/17 05:24:36;;;;;;;;;;;17.30;99.90;;;;;;5009955;28;19933;-69
2022/10/17 05:27:03;;;;;;;;;;;17.20;99.90;;;;;;5009498;28;19965;-68
2022/10/17 05:29:30;;;;;;;;;;;17.10;99.90;;;;;;5006475;28;19932;-68
2022/10/17 05:32:06;;;;;;;;;;;17.00;99.90;;;;;;5003238;28;19925;-69
2022/10/17 05:34:34;;;;;;;;;;;16.80;99.90;;;;;;5009709;28;19936;-69
2022/10/17 05:37:01;;;;;;;;;;;16.70;99.90;;;;;;5010390;28;20457;-69
2022/10/17 05:39:28;;;;;;;;;;;16.60;99.90;;;;;;5009663;28;20020;-69
2022/10/17 05:41:57;;;;;;;;;;;16.50;99.90;;;;;;5010084;28;19937;-69
2022/10/17 05:44:23;;;;;;;;;;;16.40;99.90;;;;;;5010014;28;19933;-70
2022/10/17 05:46:55;;;;;;;;;;;16.40;99.90;;;;;;5002387;28;19934;-70
2022/10/17 05:49:23;;;;;;;;;;;16.50;99.90;;;;;;5009599;28;19984;-69
2022/10/17 05:51:50;;;;;;;;;;;16.50;99.90;;;;;;5010115;28;19979;-69
2022/10/17 05:54:17;;;;;;;;;;;16.40;99.90;;;;;;5008356;28;20007;-69
2022/10/17 05:56:45;;;;;;;;;;;16.40;99.90;;;;;;5008663;28;19960;-69
2022/10/17 05:59:12;;;;;;;;;;;16.40;99.90;;;;;;5009165;28;19972;-69
2022/10/17 06:01:58;;;;;;;;;;;16.30;99.90;;;;;;5009751;28;19932;-69
2022/10/17 06:04:27;;;;;;;;;;;16.20;99.90;;;;;;5009456;28;19925;-68
2022/10/17 06:06:55;;;;;;;;;;;16.20;99.90;;;;;;5009824;28;19934;-68
2022/10/17 06:09:22;;;;;;;;;;;16.10;99.90;;;;;;5009247;28;20380;-69
2022/10/17 06:11:52;;;;;;;;;;;16.10;99.90;;;;;;5008827;28;19957;-70
2022/10/17 06:14:19;;;;;;;;;;;16.10;99.90;;;;;;5009501;28;19925;-71
2022/10/17 06:16:50;;;;;;;;;;;16.10;99.90;;;;;;5009863;28;19925;-71
2022/10/17 06:19:17;;;;;;;;;;;16.20;99.90;;;;;;5009471;28;19926;-70
2022/10/17 06:21:47;;;;;;;;;;;16.20;99.90;;;;;;5009031;28;20056;-70
2022/10/17 06:24:19;;;;;;;;;;;16.20;99.90;;;;;;5005216;28;19926;-70
2022/10/17 06:26:48;;;;;;;;;;;16.20;99.90;;;;;;5008691;28;19929;-71
2022/10/17 06:29:16;;;;;;;;;;;16.20;99.90;;;;;;5008860;28;19996;-70
2022/10/17 06:31:47;;;;;;;;;;;16.20;99.90;;;;;;5009393;28;19933;-70
2022/10/17 06:34:14;;;;;;;;;;;16.30;99.90;;;;;;5003753;28;19929;-70
2022/10/17 06:36:41;;;;;;;;;;;16.30;99.90;;;;;;5007630;28;20343;-70
2022/10/17 06:39:10;;;;;;;;;;;16.30;99.90;;;;;;5004867;28;19929;-70
2022/10/17 06:41:51;;;;;;;;;;;16.40;99.90;;;;;;5007443;28;19925;-70
2022/10/17 06:44:21;;;;;;;;;;;16.50;99.90;;;;;;5010767;28;19956;-70
2022/10/17 06:47:06;;;;;;;;;;;16.60;99.90;;;;;;5013548;28;20022;-70
2022/10/17 06:49:33;;;;;;;;;;;16.70;99.90;;;;;;5011853;28;19925;-70
2022/10/17 06:52:18;;;;;;;;;;;16.70;99.90;;;;;;5008449;28;19932;-71
2022/10/17 06:55:12;;;;;;;;;;;16.80;99.90;;;;;;5014013;28;20040;-70
2022/10/17 06:58:05;;;;;;;;;;;16.90;99.90;;;;;;5010600;28;19932;-71
2022/10/17 07:01:08;;;;;;;;;;;17.00;99.90;;;;;;5004630;28;19954;-71
2022/10/17 07:03:36;;;;;;;;;;;17.10;99.90;;;;;;5006773;28;20028;-71
2022/10/17 07:06:03;;;;;;;;;;;17.20;99.90;;;;;;5012781;28;19925;-70
2022/10/17 07:08:31;;;;;;;;;;;17.30;99.90;;;;;;5006956;28;19937;-71
2022/10/17 07:11:10;;;;;;;;;;;17.40;99.90;;;;;;5004756;28;19926;-69
2022/10/17 07:13:36;;;;;;;;;;;17.50;99.90;;;;;;5005779;28;19926;-69
2022/10/17 07:16:04;;;;;;;;;;;17.60;99.90;;;;;;5012676;28;19925;-69
2022/10/17 07:18:32;;;;;;;;;;;17.70;99.90;;;;;;5012030;28;19971;-69
2022/10/17 07:20:59;;;;;;;;;;;17.70;99.90;;;;;;5011678;28;19925;-69
2022/10/17 07:23:26;;;;;;;;;;;17.80;99.90;;;;;;5012163;28;19933;-69
2022/10/17 07:25:59;;;;;;;;;;;17.80;99.90;;;;;;5011363;28;19933;-69
2022/10/17 07:28:27;;;;;;;;;;;17.90;99.90;;;;;;5011017;28;19933;-69
2022/10/17 07:30:55;;;;;;;;;;;17.90;99.90;;;;;;5011548;28;19941;-69
2022/10/17 07:33:22;;;;;;;;;;;18.00;99.90;;;;;;5011854;28;19926;-69
2022/10/17 07:35:51;;;;;;;;;;;18.10;99.90;;;;;;5005609;28;20023;-69
2022/10/17 07:38:18;;;;;;;;;;;18.20;99.90;;;;;;5009773;28;19926;-70
2022/10/17 07:40:44;;;;;;;;;;;18.20;99.90;;;;;;5006907;28;20376;-69
2022/10/17 07:43:11;;;;;;;;;;;18.20;99.90;;;;;;5011876;28;19925;-69
2022/10/17 07:45:40;;;;;;;;;;;18.30;99.90;;;;;;5011737;28;19925;-69
2022/10/17 07:48:07;;;;;;;;;;;18.30;99.90;;;;;;5010862;28;19930;-69
2022/10/17 07:50:34;;;;;;;;;;;18.40;99.90;;;;;;5012129;28;20165;-70
2022/10/17 07:53:00;;;;;;;;;;;18.50;99.90;;;;;;5011525;28;19925;-70
2022/10/17 07:55:27;;;;;;;;;;;18.60;99.90;;;;;;5010901;28;19926;-70
2022/10/17 07:57:54;;;;;;;;;;;18.70;99.90;;;;;;5011072;28;20388;-69
2022/10/17 08:00:21;;;;;;;;;;;18.70;99.90;;;;;;5010994;28;19948;-70
2022/10/17 08:02:49;;;;;;;;;;;18.80;99.90;;;;;;5011045;28;19937;-69
2022/10/17 08:05:16;;;;;;;;;;;18.90;99.90;;;;;;5011361;28;19929;-70
2022/10/17 08:07:42;;;;;;;;;;;19.00;99.90;;;;;;5011341;28;20351;-69
2022/10/17 08:10:11;;;;;;;;;;;19.20;99.90;;;;;;5010843;28;19926;-69
2022/10/17 08:12:38;;;;;;;;;;;19.30;99.90;;;;;;5011131;28;19925;-69
2022/10/17 08:15:05;;;;;;;;;;;19.40;99.90;;;;;;5011102;28;19932;-69
2022/10/17 08:17:34;;;;;;;;;;;19.50;99.90;;;;;;5011368;28;20379;-69
2022/10/17 08:20:02;;;;;;;;;;;19.60;99.90;;;;;;5007095;28;20381;-70
2022/10/17 08:22:29;;;;;;;;;;;19.70;99.90;;;;;;5011159;28;19925;-69
2022/10/17 08:24:56;;;;;;;;;;;19.80;99.90;;;;;;5010817;28;19937;-70
2022/10/17 08:27:24;;;;;;;;;;;19.80;99.90;;;;;;5010283;28;19944;-69
2022/10/17 08:29:52;;;;;;;;;;;19.80;99.90;;;;;;5010166;28;19930;-69
2022/10/17 08:32:19;;;;;;;;;;;19.80;99.90;;;;;;5010635;28;19925;-69
2022/10/17 08:34:46;;;;;;;;;;;19.80;99.90;;;;;;5010479;28;20293;-69
2022/10/17 08:37:14;;;;;;;;;;;19.90;99.90;;;;;;5010787;28;19929;-69
2022/10/17 08:39:41;;;;;;;;;;;19.90;99.90;;;;;;5010214;28;19925;-70
2022/10/17 08:42:24;;;;;;;;;;;20.00;99.90;;;;;;5010608;28;19929;-70
2022/10/17 08:44:54;;;;;;;;;;;20.10;99.90;;;;;;5010558;28;19926;-70
2022/10/17 08:47:24;;;;;;;;;;;20.20;99.90;;;;;;5010522;28;19925;-70
2022/10/17 08:49:52;;;;;;;;;;;20.30;99.90;;;;;;5023253;28;20281;-70
2022/10/17 08:52:26;;;;;;;;;;;20.40;99.90;;;;;;5010395;28;19925;-69
2022/10/17 08:54:52;;;;;;;;;;;20.40;99.90;;;;;;5006818;28;19930;-70
2022/10/17 08:57:19;;;;;;;;;;;20.50;99.90;;;;;;5006202;28;20458;-70
2022/10/17 08:59:50;;;;;;;;;;;20.50;99.90;;;;;;5008384;28;19929;-69
2022/10/17 09:02:26;;;;;;;;;;;20.60;99.90;;;;;;5010447;28;20400;-70
2022/10/17 09:05:00;;;;;;;;;;;20.60;99.90;;;;;;5009326;28;19926;-70
2022/10/17 09:07:32;;;;;;;;;;;20.60;99.90;;;;;;5010287;28;19980;-69
2022/10/17 09:10:01;;;;;;;;;;;20.50;99.90;;;;;;5008828;28;20399;-70
2022/10/17 09:12:31;;;;;;;;;;;20.40;99.90;;;;;;5010233;28;20005;-70
2022/10/17 09:15:04;;;;;;;;;;;20.40;99.90;;;;;;5009908;28;19925;-70
2022/10/17 09:17:36;;;;;;;;;;;20.30;99.90;;;;;;5010257;28;19925;-70
2022/10/17 09:20:05;;;;;;;;;;;20.30;99.90;;;;;;5005606;28;19972;-69
2022/10/17 09:22:37;;;;;;;;;;;20.30;99.90;;;;;;5009818;28;19976;-69
2022/10/17 09:25:06;;;;;;;;;;;20.30;99.90;;;;;;5010041;28;19981;-70
2022/10/17 09:27:34;;;;;;;;;;;20.40;99.90;;;;;;5010002;28;19926;-70
2022/10/17 09:30:13;;;;;;;;;;;20.40;99.90;;;;;;5002594;28;19991;-70
2022/10/17 09:32:41;;;;;;;;;;;20.40;99.90;;;;;;5009975;28;19960;-69
2022/10/17 09:35:12;;;;;;;;;;;20.50;99.90;;;;;;5009941;28;19925;-70
2022/10/17 09:37:40;;;;;;;;;;;20.50;99.90;;;;;;5009635;28;19929;-69
2022/10/17 09:40:12;;;;;;;;;;;20.50;99.90;;;;;;5009385;28;19933;-70
2022/10/17 09:42:39;;;;;;;;;;;20.50;99.90;;;;;;5009980;28;19929;-69
2022/10/17 09:45:15;;;;;;;;;;;20.40;99.90;;;;;;5009762;28;19969;-70
2022/10/17 09:47:44;;;;;;;;;;;20.40;99.90;;;;;;5009741;28;19926;-70
2022/10/17 09:50:14;;;;;;;;;;;20.40;99.90;;;;;;5009187;28;19925;-69
2022/10/17 09:52:46;;;;;;;;;;;20.40;99.90;;;;;;5009771;28;19979;-70
2022/10/17 09:55:17;;;;;;;;;;;20.30;99.90;;;;;;5009560;28;20027;-70
2022/10/17 09:57:54;;;;;;;;;;;20.30;99.90;;;;;;5009846;28;19977;-69
2022/10/17 10:00:22;;;;;;;;;;;20.30;99.90;;;;;;5009449;28;19929;-69
2022/10/17 10:02:49;;;;;;;;;;;20.40;99.90;;;;;;5009885;28;20277;-70
2022/10/17 10:05:16;;;;;;;;;;;20.30;99.90;;;;;;5010056;28;19925;-70
2022/10/17 10:07:46;;;;;;;;;;;20.30;99.90;;;;;;5009954;28;19975;-69
2022/10/17 10:10:23;;;;;;;;;;;20.30;99.90;;;;;;5009169;28;19926;-71
2022/10/17 10:13:02;;;;;;;;;;;20.30;99.90;;;;;;5009664;28;19929;-69
2022/10/17 10:15:36;;;;;;;;;;;20.20;99.90;;;;;;5009548;28;19925;-69
2022/10/17 10:18:03;;;;;;;;;;;20.30;99.90;;;;;;5004117;28;20027;-70
2022/10/17 10:20:32;;;;;;;;;;;20.30;99.90;;;;;;5013182;28;19972;-70
2022/10/17 10:23:07;;;;;;;;;;;20.30;99.90;;;;;;5013044;28;19926;-70
2022/10/17 10:25:35;;;;;;;;;;;20.30;99.90;;;;;;5013188;28;20339;-70
2022/10/17 10:28:02;;;;;;;;;;;20.30;99.90;;;;;;5029276;28;19957;-70
2022/10/17 10:30:30;;;;;;;;;;;20.30;99.90;;;;;;5012911;28;19975;-69
2022/10/17 10:32:59;;;;;;;;;;;20.30;99.90;;;;;;5012652;28;19925;-70
2022/10/17 10:35:31;;;;;;;;;;;20.30;99.90;;;;;;5013227;28;19933;-70
2022/10/17 10:37:58;;;;;;;;;;;20.30;99.90;;;;;;5012582;28;19929;-70
2022/10/17 10:40:28;;;;;;;;;;;20.30;99.90;;;;;;5012882;28;19961;-70
2022/10/17 10:42:57;;;;;;;;;;;20.30;99.90;;;;;;5012903;28;19926;-70
2022/10/17 10:45:25;;;;;;;;;;;20.40;99.90;;;;;;5013043;28;19928;-70
2022/10/17 10:47:52;;;;;;;;;;;20.40;99.90;;;;;;5012790;28;20000;-69
2022/10/17 10:50:25;;;;;;;;;;;20.40;99.90;;;;;;5012345;28;20388;-70
2022/10/17 10:52:54;;;;;;;;;;;20.40;99.90;;;;;;5012671;28;19929;-70
2022/10/17 10:55:24;;;;;;;;;;;20.40;99.90;;;;;;5012608;28;19949;-70
2022/10/17 10:57:55;;;;;;;;;;;20.40;99.90;;;;;;5012521;28;19929;-69
2022/10/17 11:00:24;;;;;;;;;;;20.40;99.90;;;;;;5012230;28;19976;-70
2022/10/17 11:02:54;;;;;;;;;;;20.40;99.90;;;;;;5012289;28;20011;-68
2022/10/17 11:05:23;;;;;;;;;;;20.50;99.90;;;;;;5012623;28;19933;-71
2022/10/17 11:07:54;;;;;;;;;;;20.60;99.90;;;;;;5012319;28;19933;-71
2022/10/17 11:10:25;;;;;;;;;;;20.60;99.90;;;;;;5008071;28;19925;-70
2022/10/17 11:12:57;;;;;;;;;;;20.60;99.90;;;;;;5012378;28;20420;-70
2022/10/17 11:15:26;;;;;;;;;;;20.70;99.90;;;;;;5012144;28;19983;-70
2022/10/17 11:17:57;;;;;;;;;;;20.80;99.90;;;;;;5027056;28;19980;-70
2022/10/17 11:20:29;;;;;;;;;;;20.90;99.90;;;;;;5012019;28;19952;-70
2022/10/17 11:22:58;;;;;;;;;;;21.00;99.90;;;;;;5028426;28;19925;-71
2022/10/17 11:25:31;;;;;;;;;;;21.00;99.90;;;;;;5012174;28;19929;-70
2022/10/17 11:27:59;;;;;;;;;;;21.10;99.90;;;;;;5027812;28;19926;-71
2022/10/17 11:30:28;;;;;;;;;;;21.20;99.90;;;;;;5010507;28;20408;-71
2022/10/17 11:32:56;;;;;;;;;;;21.20;99.90;;;;;;5012064;28;19925;-70
2022/10/17 11:35:24;;;;;;;;;;;21.10;99.90;;;;;;5011984;28;19971;-70
2022/10/17 11:37:55;;;;;;;;;;;21.10;99.90;;;;;;5011501;28;19975;-69
2022/10/17 11:40:25;;;;;;;;;;;21.10;99.90;;;;;;5011513;28;19980;-70
2022/10/17 11:42:54;;;;;;;;;;;21.00;99.90;;;;;;5011349;28;19933;-70
2022/10/17 11:45:25;;;;;;;;;;;21.00;99.90;;;;;;5011627;28;20031;-70
2022/10/17 11:47:53;;;;;;;;;;;21.00;99.90;;;;;;5011363;28;20354;-69
2022/10/17 11:50:24;;;;;;;;;;;21.00;99.90;;;;;;5011360;28;19929;-70
2022/10/17 11:52:53;;;;;;;;;;;21.00;99.90;;;;;;5011514;28;20444;-69
2022/10/17 11:55:21;;;;;;;;;;;21.00;99.90;;;;;;5011230;28;20458;-70
2022/10/17 11:57:56;;;;;;;;;;;21.00;99.90;;;;;;5011056;28;20351;-69
2022/10/17 12:00:30;;;;;;;;;;;21.10;99.90;;;;;;5011162;28;20392;-70
2022/10/17 12:03:03;;;;;;;;;;;21.30;99.90;;;;;;5011016;28;19926;-70
2022/10/17 12:05:33;;;;;;;;;;;21.30;99.90;;;;;;5011544;28;19926;-70
2022/10/17 12:08:03;;;;;;;;;;;21.20;99.90;;;;;;5006232;28;19932;-69
2022/10/17 12:10:34;;;;;;;;;;;21.20;99.90;;;;;;5010987;28;19981;-70
2022/10/17 12:13:16;;;;;;;;;;;21.20;99.90;;;;;;4994867;28;20278;-69
2022/10/17 12:15:44;;;;;;;;;;;21.20;99.90;;;;;;5010763;28;19929;-69
2022/10/17 12:18:16;;;;;;;;;;;21.30;99.90;;;;;;5010778;28;19948;-70
2022/10/17 12:20:42;;;;;;;;;;;21.20;99.90;;;;;;5011251;28;19934;-68
2022/10/17 12:23:27;;;;;;;;;;;21.20;99.90;;;;;;5011085;28;20300;-70
2022/10/17 12:25:56;;;;;;;;;;;21.20;99.90;;;;;;5010162;28;19929;-70
2022/10/17 12:28:28;;;;;;;;;;;21.10;99.90;;;;;;5014115;28;19933;-70
2022/10/17 12:30:58;;;;;;;;;;;21.10;99.90;;;;;;5010120;28;19933;-68
2022/10/17 12:33:35;;;;;;;;;;;21.10;99.90;;;;;;5010833;28;19933;-69
2022/10/17 12:36:20;;;;;;;;;;;21.10;99.90;;;;;;5007523;28;20428;-70
2022/10/17 12:38:48;;;;;;;;;;;21.10;99.90;;;;;;5011036;28;19940;-70
2022/10/17 12:41:15;;;;;;;;;;;21.10;99.90;;;;;;5010009;28;19929;-70
2022/10/17 12:43:51;;;;;;;;;;;21.10;99.90;;;;;;5010709;28;19980;-70
2022/10/17 12:46:36;;;;;;;;;;;21.10;99.90;;;;;;5010631;28;19925;-69
2022/10/17 12:49:20;;;;;;;;;;;21.10;99.90;;;;;;5003364;28;20367;-70
2022/10/17 12:52:05;;;;;;;;;;;21.20;99.90;;;;;;5010061;28;19930;-70
2022/10/17 12:54:38;;;;;;;;;;;21.20;99.90;;;;;;5010235;28;20389;-69
2022/10/17 12:57:13;;;;;;;;;;;21.30;99.90;;;;;;5004347;28;19929;-70
2022/10/17 12:59:43;;;;;;;;;;;21.30;99.90;;;;;;5008098;28;20067;-69
2022/10/17 13:02:14;;;;;;;;;;;21.20;99.90;;;;;;5009712;28;19929;-70
2022/10/17 13:04:42;;;;;;;;;;;21.10;99.90;;;;;;5010373;28;20359;-68
2022/10/17 13:07:15;;;;;;;;;;;21.10;99.90;;;;;;5010553;28;19936;-69
2022/10/17 13:09:43;;;;;;;;;;;21.00;99.90;;;;;;5009504;28;20400;-69
2022/10/17 13:12:12;;;;;;;;;;;21.00;99.90;;;;;;5010151;28;19933;-70
2022/10/17 13:14:40;;;;;;;;;;;20.90;99.90;;;;;;5010039;28;20388;-70
2022/10/17 13:17:19;;;;;;;;;;;20.90;99.90;;;;;;5010029;28;20364;-70
2022/10/17 13:19:48;;;;;;;;;;;20.90;99.90;;;;;;5009589;28;19972;-69
2022/10/17 13:22:16;;;;;;;;;;;20.90;99.90;;;;;;5021488;28;19926;-70
2022/10/17 13:24:43;;;;;;;;;;;20.90;99.90;;;;;;5009638;28;19944;-69
2022/10/17 13:27:22;;;;;;;;;;;20.90;99.90;;;;;;5010110;28;19926;-70
2022/10/17 13:29:49;;;;;;;;;;;20.90;99.90;;;;;;5009665;28;19929;-70
2022/10/17 13:32:16;;;;;;;;;;;20.90;99.90;;;;;;5009770;28;19929;-69
2022/10/17 13:34:43;;;;;;;;;;;20.90;99.90;;;;;;5009977;28;20323;-70
2022/10/17 13:37:13;;;;;;;;;;;20.90;99.90;;;;;;5009958;28;19971;-69
2022/10/17 13:39:41;;;;;;;;;;;20.90;99.90;;;;;;5011580;28;20447;-67
2022/10/17 13:42:17;;;;;;;;;;;20.90;99.90;;;;;;5009690;28;19925;-69
2022/10/17 13:44:44;;;;;;;;;;;20.90;99.90;;;;;;5009746;28;19984;-67
2022/10/17 13:47:20;;;;;;;;;;;20.90;99.90;;;;;;5009849;28;19976;-66
2022/10/17 13:49:47;;;;;;;;;;;20.90;99.90;;;;;;5009281;28;20370;-69
2022/10/17 13:52:18;;;;;;;;;;;20.90;99.90;;;;;;5009925;28;19947;-69
2022/10/17 13:54:45;;;;;;;;;;;20.90;99.90;;;;;;5013596;28;19925;-70
2022/10/17 13:57:20;;;;;;;;;;;20.90;99.90;;;;;;5014033;28;19929;-69
2022/10/17 13:59:49;;;;;;;;;;;20.80;99.90;;;;;;5013329;28;20008;-69
2022/10/17 14:02:17;;;;;;;;;;;20.80;99.90;;;;;;5013648;28;19987;-69
2022/10/17 14:04:43;;;;;;;;;;;20.80;99.90;;;;;;5013402;28;19926;-69
2022/10/17 14:07:23;;;;;;;;;;;20.90;99.90;;;;;;5013534;28;19987;-69
2022/10/17 14:09:50;;;;;;;;;;;20.90;99.90;;;;;;5012878;28;19992;-70
2022/10/17 14:12:18;;;;;;;;;;;20.80;99.90;;;;;;5013520;28;19971;-69
2022/10/17 14:14:47;;;;;;;;;;;20.80;99.90;;;;;;5013308;28;19933;-69
2022/10/17 14:17:14;;;;;;;;;;;20.80;99.90;;;;;;5013557;28;19929;-69
2022/10/17 14:19:41;;;;;;;;;;;20.80;99.90;;;;;;5012966;28;19926;-69
2022/10/17 14:22:17;;;;;;;;;;;20.70;99.90;;;;;;5013403;28;19925;-69
2022/10/17 14:24:45;;;;;;;;;;;20.70;99.90;;;;;;5012452;28;20020;-67
2022/10/17 14:27:26;;;;;;;;;;;20.70;99.90;;;;;;5013105;28;19925;-71
2022/10/17 14:29:54;;;;;;;;;;;20.70;99.90;;;;;;5011607;28;19925;-69
2022/10/17 14:32:22;;;;;;;;;;;20.70;99.90;;;;;;5009921;28;19933;-69
2022/10/17 14:34:52;;;;;;;;;;;20.60;99.90;;;;;;5012946;28;19976;-69
2022/10/17 14:37:27;;;;;;;;;;;20.60;99.90;;;;;;5008817;28;20431;-69
2022/10/17 14:39:58;;;;;;;;;;;20.50;99.90;;;;;;5028239;28;19980;-69
2022/10/17 14:42:25;;;;;;;;;;;20.50;99.90;;;;;;5011188;28;19933;-69
2022/10/17 14:44:53;;;;;;;;;;;20.40;99.90;;;;;;5011005;28;19968;-70
2022/10/17 14:47:21;;;;;;;;;;;20.40;99.90;;;;;;5009402;28;20123;-69
2022/10/17 14:49:49;;;;;;;;;;;20.40;99.90;;;;;;5010740;28;20439;-68
2022/10/17 14:52:26;;;;;;;;;;;20.40;99.90;;;;;;5000317;28;19988;-69
2022/10/17 14:54:53;;;;;;;;;;;20.40;99.90;;;;;;5013004;28;20108;-68
2022/10/17 14:57:24;;;;;;;;;;;20.30;99.90;;;;;;5013715;28;20446;-69
2022/10/17 14:59:51;;;;;;;;;;;20.30;99.90;;;;;;5012502;28;19929;-68
2022/10/17 15:02:18;;;;;;;;;;;20.30;99.90;;;;;;5013182;28;19932;-67
2022/10/17 15:04:44;;;;;;;;;;;20.30;99.90;;;;;;5012234;28;19925;-65
2022/10/17 15:07:13;;;;;;;;;;;20.30;99.90;;;;;;5010008;28;19929;-67
2022/10/17 15:09:40;;;;;;;;;;;20.30;99.90;;;;;;5013033;28;19956;-67
2022/10/17 15:12:11;;;;;;;;;;;20.20;99.90;;;;;;5013624;28;19925;-70
2022/10/17 15:14:39;;;;;;;;;;;20.20;99.90;;;;;;5013213;28;19926;-69
2022/10/17 15:17:10;;;;;;;;;;;20.20;99.90;;;;;;5013541;28;19932;-70
2022/10/17 15:19:37;;;;;;;;;;;20.10;99.90;;;;;;5012905;28;20339;-70
2022/10/17 15:22:03;;;;;;;;;;;20.00;99.90;;;;;;5012585;28;19926;-72
2022/10/17 15:24:30;;;;;;;;;;;19.90;99.90;;;;;;5004936;28;20313;-69
2022/10/17 15:26:57;;;;;;;;;;;19.80;99.90;;;;;;5010030;28;19979;-69
2022/10/17 15:29:24;;;;;;;;;;;19.70;99.90;;;;;;5012609;28;19930;-70
2022/10/17 15:31:52;;;;;;;;;;;19.60;99.90;;;;;;5013125;28;19925;-69
2022/10/17 15:34:19;;;;;;;;;;;19.50;99.90;;;;;;5013124;28;19926;-70
2022/10/17 15:36:49;;;;;;;;;;;19.40;99.90;;;;;;5012570;28;19975;-70
2022/10/17 15:39:15;;;;;;;;;;;19.30;99.90;;;;;;5012430;28;19925;-70
2022/10/17 15:41:42;;;;;;;;;;;19.20;99.90;;;;;;5005812;28;19930;-70
2022/10/17 15:44:09;;;;;;;;;;;19.10;99.90;;;;;;5013008;28;19925;-70
2022/10/17 15:46:39;;;;;;;;;;;19.00;99.90;;;;;;5012930;28;19979;-70
2022/10/17 15:49:10;;;;;;;;;;;19.00;99.90;;;;;;5004973;28;20384;-69
2022/10/17 15:51:37;;;;;;;;;;;18.90;99.90;;;;;;5012677;28;19933;-70
2022/10/17 15:54:05;;;;;;;;;;;18.80;99.90;;;;;;5012719;28;19932;-70
2022/10/17 15:56:34;;;;;;;;;;;18.80;99.90;;;;;;5013165;28;20396;-70
2022/10/17 15:59:01;;;;;;;;;;;18.70;99.90;;;;;;5012547;28;20384;-69
2022/10/17 16:01:30;;;;;;;;;;;18.60;99.90;;;;;;5012383;28;19932;-70
2022/10/17 16:03:56;;;;;;;;;;;18.50;99.90;;;;;;5012535;28;19933;-70
2022/10/17 16:06:25;;;;;;;;;;;18.40;99.90;;;;;;5029021;28;19933;-70
2022/10/17 16:08:52;;;;;;;;;;;18.30;99.90;;;;;;5029066;28;19926;-70
2022/10/17 16:11:21;;;;;;;;;;;18.30;99.90;;;;;;5029252;28;19933;-70
2022/10/17 16:13:51;;;;;;;;;;;18.20;99.90;;;;;;5012530;28;19926;-70
2022/10/17 16:16:17;;;;;;;;;;;18.10;99.90;;;;;;5012044;28;20020;-70
2022/10/17 16:18:44;;;;;;;;;;;18.00;99.90;;;;;;5012580;28;19933;-70
2022/10/17 16:21:12;;;;;;;;;;;18.00;99.90;;;;;;5011875;28;20388;-69
2022/10/17 16:23:40;;;;;;;;;;;17.90;99.90;;;;;;5012599;28;19926;-69
2022/10/17 16:26:07;;;;;;;;;;;17.90;99.90;;;;;;5012513;28;20284;-69
2022/10/17 16:28:34;;;;;;;;;;;17.80;99.90;;;;;;5012061;28;19926;-73
2022/10/17 16:31:01;;;;;;;;;;;17.80;99.90;;;;;;5012324;28;20032;-70
2022/10/17 16:33:30;;;;;;;;;;;17.80;99.90;;;;;;5012653;28;19980;-70
2022/10/17 16:35:56;;;;;;;;;;;17.70;99.90;;;;;;5012076;28;19925;-70
2022/10/17 16:38:23;;;;;;;;;;;17.60;99.90;;;;;;5012170;28;20363;-69
2022/10/17 16:40:51;;;;;;;;;;;17.60;99.90;;;;;;5012032;28;19949;-68
2022/10/17 16:43:18;;;;;;;;;;;17.50;99.90;;;;;;5012245;28;19926;-69
2022/10/17 16:45:45;;;;;;;;;;;17.50;99.90;;;;;;5010312;28;19952;-68
2022/10/17 16:48:12;;;;;;;;;;;17.50;99.90;;;;;;5011281;28;19926;-68
2022/10/17 16:50:39;;;;;;;;;;;17.50;99.90;;;;;;5011975;28;19925;-69
2022/10/17 16:53:06;;;;;;;;;;;17.50;99.90;;;;;;5011790;28;19925;-69
2022/10/17 16:55:32;;;;;;;;;;;17.50;99.90;;;;;;5012080;28;19929;-68
2022/10/17 16:58:01;;;;;;;;;;;17.40;99.90;;;;;;5011737;28;20339;-68
2022/10/17 17:00:28;;;;;;;;;;;17.40;99.90;;;;;;5011891;28;20444;-68
2022/10/17 17:02:54;;;;;;;;;;;17.40;99.90;;;;;;5011816;28;19925;-69
2022/10/17 17:05:21;;;;;;;;;;;17.40;99.90;;;;;;5012128;28;19933;-68
2022/10/17 17:07:48;;;;;;;;;;;17.40;99.90;;;;;;5011590;28;19930;-68
2022/10/17 17:10:15;;;;;;;;;;;17.40;99.90;;;;;;5011690;28;19972;-69
2022/10/17 17:12:42;;;;;;;;;;;17.30;99.90;;;;;;5011602;28;20308;-68
2022/10/17 17:15:10;;;;;;;;;;;17.30;99.90;;;;;;5011418;28;19975;-70
2022/10/17 17:17:36;;;;;;;;;;;17.30;99.90;;;;;;5011297;28;20393;-69
2022/10/17 17:20:04;;;;;;;;;;;17.20;99.90;;;;;;5011749;28;19929;-68
2022/10/17 17:22:30;;;;;;;;;;;17.30;99.90;;;;;;5012358;28;20376;-68
2022/10/17 17:24:57;;;;;;;;;;;17.20;99.90;;;;;;5011834;28;19926;-68
2022/10/17 17:27:26;;;;;;;;;;;17.20;99.90;;;;;;5012208;28;19926;-68
2022/10/17 17:29:53;;;;;;;;;;;17.20;99.90;;;;;;5010502;28;19933;-68
2022/10/17 17:32:22;;;;;;;;;;;17.20;99.90;;;;;;5011731;28;20277;-69